sensor_id;sensor_type;location;lat;lon;timestamp;P1;durP1;ratioP1;P2;durP2;ratioP2
73120;SDS011;61307;49.628;-1.624;2023-04-01T00:01:57;11.60;;;3.30;;
73120;SDS011;61307;49.628;-1.624;2023-04-01T00:04:24;14.80;;;3.40;;
73120;SDS011;61307;49.628;-1.624;2023-04-01T00:06:50;11.15;;;3.30;;
73120;SDS011;61307;49.628;-1.624;2023-04-01T00:09:17;13.15;;;2.83;;
73120;SDS011;61307;49.628;-1.624;2023-04-01T00:11:45;13.07;;;3.10;;
73120;SDS011;61307;49.628;-1.624;2023-04-01T00:14:12;15.00;;;3.17;;
73120;SDS011;61307;49.628;-1.624;2023-04-01T00:16:39;16.35;;;4.00;;
73120;SDS011;61307;49.628;-1.624;2023-04-01T00:19:08;10.43;;;2.88;;
73120;SDS011;61307;49.628;-1.624;2023-04-01T00:21:35;12.35;;;3.15;;
73120;SDS011;61307;49.628;-1.624;2023-04-01T00:24:02;12.70;;;3.05;;
73120;SDS011;61307;49.628;-1.624;2023-04-01T00:26:29;12.30;;;2.97;;
73120;SDS011;61307;49.628;-1.624;2023-04-01T00:28:56;12.20;;;3.03;;
73120;SDS011;61307;49.628;-1.624;2023-04-01T00:31:24;10.68;;;2.65;;
73120;SDS011;61307;49.628;-1.624;2023-04-01T00:33:51;11.45;;;2.53;;
73120;SDS011;61307;49.628;-1.624;2023-04-01T00:36:20;13.15;;;3.08;;
73120;SDS011;61307;49.628;-1.624;2023-04-01T00:38:48;15.27;;;3.40;;
73120;SDS011;61307;49.628;-1.624;2023-04-01T00:41:17;10.70;;;2.83;;
73120;SDS011;61307;49.628;-1.624;2023-04-01T00:43:45;13.32;;;2.85;;
73120;SDS011;61307;49.628;-1.624;2023-04-01T00:46:13;12.88;;;3.13;;
73120;SDS011;61307;49.628;-1.624;2023-04-01T00:48:41;9.85;;;3.60;;
73120;SDS011;61307;49.628;-1.624;2023-04-01T00:51:11;9.20;;;2.92;;
73120;SDS011;61307;49.628;-1.624;2023-04-01T00:53:43;13.57;;;3.60;;
73120;SDS011;61307;49.628;-1.624;2023-04-01T00:56:15;13.68;;;2.85;;
73120;SDS011;61307;49.628;-1.624;2023-04-01T00:58:46;11.10;;;3.10;;
73120;SDS011;61307;49.628;-1.624;2023-04-01T01:01:16;14.90;;;2.88;;
73120;SDS011;61307;49.628;-1.624;2023-04-01T01:03:45;11.77;;;2.85;;
73120;SDS011;61307;49.628;-1.624;2023-04-01T01:06:18;13.48;;;3.42;;
73120;SDS011;61307;49.628;-1.624;2023-04-01T01:09:06;11.02;;;2.63;;
73120;SDS011;61307;49.628;-1.624;2023-04-01T01:11:41;12.90;;;3.05;;
73120;SDS011;61307;49.628;-1.624;2023-04-01T01:14:21;13.43;;;2.90;;
73120;SDS011;61307;49.628;-1.624;2023-04-01T01:17:00;12.10;;;2.92;;
73120;SDS011;61307;49.628;-1.624;2023-04-01T01:19:47;12.00;;;2.97;;
73120;SDS011;61307;49.628;-1.624;2023-04-01T01:22:41;12.70;;;3.10;;
73120;SDS011;61307;49.628;-1.624;2023-04-01T01:25:27;12.07;;;3.30;;
73120;SDS011;61307;49.628;-1.624;2023-04-01T01:28:02;15.90;;;3.22;;
73120;SDS011;61307;49.628;-1.624;2023-04-01T01:30:49;11.48;;;2.80;;
73120;SDS011;61307;49.628;-1.624;2023-04-01T01:33:39;12.57;;;3.20;;
73120;SDS011;61307;49.628;-1.624;2023-04-01T01:36:20;12.38;;;2.85;;
73120;SDS011;61307;49.628;-1.624;2023-04-01T01:38:48;9.90;;;2.75;;
73120;SDS011;61307;49.628;-1.624;2023-04-01T01:41:17;15.43;;;3.20;;
73120;SDS011;61307;49.628;-1.624;2023-04-01T01:43:47;10.38;;;3.00;;
73120;SDS011;61307;49.628;-1.624;2023-04-01T01:46:17;12.63;;;3.30;;
73120;SDS011;61307;49.628;-1.624;2023-04-01T01:48:47;15.60;;;3.38;;
73120;SDS011;61307;49.628;-1.624;2023-04-01T01:51:16;19.63;;;3.67;;
73120;SDS011;61307;49.628;-1.624;2023-04-01T01:53:46;9.90;;;2.33;;
73120;SDS011;61307;49.628;-1.624;2023-04-01T01:56:13;14.77;;;3.30;;
73120;SDS011;61307;49.628;-1.624;2023-04-01T01:58:41;13.43;;;3.05;;
73120;SDS011;61307;49.628;-1.624;2023-04-01T02:01:10;10.88;;;2.92;;
73120;SDS011;61307;49.628;-1.624;2023-04-01T02:03:40;12.38;;;2.83;;
73120;SDS011;61307;49.628;-1.624;2023-04-01T02:06:09;13.88;;;3.20;;
73120;SDS011;61307;49.628;-1.624;2023-04-01T02:08:40;12.15;;;3.40;;
73120;SDS011;61307;49.628;-1.624;2023-04-01T02:11:12;14.85;;;2.95;;
73120;SDS011;61307;49.628;-1.624;2023-04-01T02:13:42;11.27;;;2.90;;
73120;SDS011;61307;49.628;-1.624;2023-04-01T02:16:15;13.93;;;3.05;;
73120;SDS011;61307;49.628;-1.624;2023-04-01T02:18:46;10.23;;;3.00;;
73120;SDS011;61307;49.628;-1.624;2023-04-01T02:21:16;12.13;;;3.40;;
73120;SDS011;61307;49.628;-1.624;2023-04-01T02:23:45;16.67;;;3.05;;
73120;SDS011;61307;49.628;-1.624;2023-04-01T02:26:15;16.08;;;2.72;;
73120;SDS011;61307;49.628;-1.624;2023-04-01T02:28:43;16.27;;;3.30;;
73120;SDS011;61307;49.628;-1.624;2023-04-01T02:31:13;11.02;;;2.58;;
73120;SDS011;61307;49.628;-1.624;2023-04-01T02:33:41;9.02;;;2.63;;
73120;SDS011;61307;49.628;-1.624;2023-04-01T02:36:10;13.25;;;2.80;;
73120;SDS011;61307;49.628;-1.624;2023-04-01T02:38:38;14.80;;;3.38;;
73120;SDS011;61307;49.628;-1.624;2023-04-01T02:41:06;14.13;;;3.45;;
73120;SDS011;61307;49.628;-1.624;2023-04-01T02:43:34;12.32;;;3.00;;
73120;SDS011;61307;49.628;-1.624;2023-04-01T02:46:02;13.63;;;3.13;;
73120;SDS011;61307;49.628;-1.624;2023-04-01T02:48:29;10.45;;;3.08;;
73120;SDS011;61307;49.628;-1.624;2023-04-01T02:50:56;14.20;;;3.25;;
73120;SDS011;61307;49.628;-1.624;2023-04-01T02:53:23;9.88;;;2.40;;
73120;SDS011;61307;49.628;-1.624;2023-04-01T02:55:50;13.55;;;3.33;;
73120;SDS011;61307;49.628;-1.624;2023-04-01T02:58:18;10.93;;;2.60;;
73120;SDS011;61307;49.628;-1.624;2023-04-01T03:00:47;16.45;;;2.70;;
73120;SDS011;61307;49.628;-1.624;2023-04-01T03:03:14;10.00;;;2.60;;
73120;SDS011;61307;49.628;-1.624;2023-04-01T03:05:41;13.02;;;2.67;;
73120;SDS011;61307;49.628;-1.624;2023-04-01T03:08:08;16.60;;;3.13;;
73120;SDS011;61307;49.628;-1.624;2023-04-01T03:10:35;16.40;;;3.22;;
73120;SDS011;61307;49.628;-1.624;2023-04-01T03:13:02;13.40;;;3.42;;
73120;SDS011;61307;49.628;-1.624;2023-04-01T03:15:29;13.57;;;3.47;;
73120;SDS011;61307;49.628;-1.624;2023-04-01T03:17:58;11.55;;;2.80;;
73120;SDS011;61307;49.628;-1.624;2023-04-01T03:20:25;12.85;;;2.83;;
73120;SDS011;61307;49.628;-1.624;2023-04-01T03:22:52;12.68;;;3.53;;
73120;SDS011;61307;49.628;-1.624;2023-04-01T03:25:19;11.95;;;2.80;;
73120;SDS011;61307;49.628;-1.624;2023-04-01T03:27:46;11.90;;;2.60;;
73120;SDS011;61307;49.628;-1.624;2023-04-01T03:30:13;13.48;;;2.92;;
73120;SDS011;61307;49.628;-1.624;2023-04-01T03:32:40;13.98;;;3.00;;
73120;SDS011;61307;49.628;-1.624;2023-04-01T03:35:09;14.38;;;2.92;;
73120;SDS011;61307;49.628;-1.624;2023-04-01T03:37:36;13.45;;;3.13;;
73120;SDS011;61307;49.628;-1.624;2023-04-01T03:40:04;12.25;;;2.95;;
73120;SDS011;61307;49.628;-1.624;2023-04-01T03:42:32;11.90;;;2.90;;
73120;SDS011;61307;49.628;-1.624;2023-04-01T03:44:58;11.10;;;3.20;;
73120;SDS011;61307;49.628;-1.624;2023-04-01T03:47:26;13.43;;;3.17;;
73120;SDS011;61307;49.628;-1.624;2023-04-01T03:49:53;13.80;;;3.42;;
73120;SDS011;61307;49.628;-1.624;2023-04-01T03:52:21;15.77;;;3.42;;
73120;SDS011;61307;49.628;-1.624;2023-04-01T03:54:48;12.50;;;3.00;;
73120;SDS011;61307;49.628;-1.624;2023-04-01T03:57:15;14.25;;;2.80;;
73120;SDS011;61307;49.628;-1.624;2023-04-01T03:59:42;13.82;;;3.03;;
73120;SDS011;61307;49.628;-1.624;2023-04-01T04:02:10;13.73;;;3.40;;
73120;SDS011;61307;49.628;-1.624;2023-04-01T04:04:37;13.77;;;3.28;;
73120;SDS011;61307;49.628;-1.624;2023-04-01T04:07:04;12.32;;;3.15;;
73120;SDS011;61307;49.628;-1.624;2023-04-01T04:09:32;10.15;;;2.78;;
73120;SDS011;61307;49.628;-1.624;2023-04-01T04:11:59;11.95;;;3.10;;
73120;SDS011;61307;49.628;-1.624;2023-04-01T04:14:26;10.80;;;3.08;;
73120;SDS011;61307;49.628;-1.624;2023-04-01T04:16:53;12.30;;;2.75;;
73120;SDS011;61307;49.628;-1.624;2023-04-01T04:19:20;8.70;;;2.75;;
73120;SDS011;61307;49.628;-1.624;2023-04-01T04:21:47;10.05;;;2.97;;
73120;SDS011;61307;49.628;-1.624;2023-04-01T04:24:14;10.43;;;2.50;;
73120;SDS011;61307;49.628;-1.624;2023-04-01T04:26:43;8.88;;;2.78;;
73120;SDS011;61307;49.628;-1.624;2023-04-01T04:29:10;10.85;;;2.70;;
73120;SDS011;61307;49.628;-1.624;2023-04-01T04:31:37;12.98;;;2.95;;
73120;SDS011;61307;49.628;-1.624;2023-04-01T04:34:04;10.63;;;2.50;;
73120;SDS011;61307;49.628;-1.624;2023-04-01T04:36:31;11.95;;;2.50;;
73120;SDS011;61307;49.628;-1.624;2023-04-01T04:38:59;13.52;;;3.63;;
73120;SDS011;61307;49.628;-1.624;2023-04-01T04:41:28;10.55;;;2.75;;
73120;SDS011;61307;49.628;-1.624;2023-04-01T04:43:56;14.15;;;2.65;;
73120;SDS011;61307;49.628;-1.624;2023-04-01T04:46:24;9.98;;;2.70;;
73120;SDS011;61307;49.628;-1.624;2023-04-01T04:48:51;12.05;;;2.45;;
73120;SDS011;61307;49.628;-1.624;2023-04-01T04:51:18;9.45;;;2.47;;
73120;SDS011;61307;49.628;-1.624;2023-04-01T04:53:46;12.20;;;2.63;;
73120;SDS011;61307;49.628;-1.624;2023-04-01T04:56:16;11.77;;;2.50;;
73120;SDS011;61307;49.628;-1.624;2023-04-01T04:58:45;10.15;;;2.80;;
73120;SDS011;61307;49.628;-1.624;2023-04-01T05:01:15;11.27;;;2.70;;
73120;SDS011;61307;49.628;-1.624;2023-04-01T05:03:42;9.30;;;2.55;;
73120;SDS011;61307;49.628;-1.624;2023-04-01T05:06:11;11.07;;;2.40;;
73120;SDS011;61307;49.628;-1.624;2023-04-01T05:08:39;9.80;;;2.42;;
73120;SDS011;61307;49.628;-1.624;2023-04-01T05:11:09;8.63;;;2.40;;
73120;SDS011;61307;49.628;-1.624;2023-04-01T05:13:38;9.73;;;2.15;;
73120;SDS011;61307;49.628;-1.624;2023-04-01T05:16:07;8.68;;;2.45;;
73120;SDS011;61307;49.628;-1.624;2023-04-01T05:18:36;11.80;;;3.17;;
73120;SDS011;61307;49.628;-1.624;2023-04-01T05:21:03;8.30;;;2.20;;
73120;SDS011;61307;49.628;-1.624;2023-04-01T05:23:31;8.05;;;2.42;;
73120;SDS011;61307;49.628;-1.624;2023-04-01T05:25:58;5.75;;;2.22;;
73120;SDS011;61307;49.628;-1.624;2023-04-01T05:28:28;7.65;;;2.10;;
73120;SDS011;61307;49.628;-1.624;2023-04-01T05:30:57;9.32;;;2.60;;
73120;SDS011;61307;49.628;-1.624;2023-04-01T05:33:25;8.38;;;2.08;;
73120;SDS011;61307;49.628;-1.624;2023-04-01T05:35:54;11.00;;;2.17;;
73120;SDS011;61307;49.628;-1.624;2023-04-01T05:38:22;10.55;;;2.45;;
73120;SDS011;61307;49.628;-1.624;2023-04-01T05:40:49;6.15;;;1.98;;
73120;SDS011;61307;49.628;-1.624;2023-04-01T05:43:16;8.55;;;2.30;;
73120;SDS011;61307;49.628;-1.624;2023-04-01T05:45:43;9.32;;;2.85;;
73120;SDS011;61307;49.628;-1.624;2023-04-01T05:48:10;7.00;;;1.75;;
73120;SDS011;61307;49.628;-1.624;2023-04-01T05:50:39;6.03;;;1.80;;
73120;SDS011;61307;49.628;-1.624;2023-04-01T05:53:08;8.63;;;2.38;;
73120;SDS011;61307;49.628;-1.624;2023-04-01T05:55:35;6.53;;;1.92;;
73120;SDS011;61307;49.628;-1.624;2023-04-01T05:58:02;6.10;;;2.45;;
73120;SDS011;61307;49.628;-1.624;2023-04-01T06:00:29;9.60;;;2.72;;
73120;SDS011;61307;49.628;-1.624;2023-04-01T06:02:58;8.02;;;2.42;;
73120;SDS011;61307;49.628;-1.624;2023-04-01T06:05:26;8.30;;;2.20;;
73120;SDS011;61307;49.628;-1.624;2023-04-01T06:07:55;9.20;;;2.20;;
73120;SDS011;61307;49.628;-1.624;2023-04-01T06:10:31;5.22;;;1.75;;
73120;SDS011;61307;49.628;-1.624;2023-04-01T06:13:10;8.32;;;2.30;;
73120;SDS011;61307;49.628;-1.624;2023-04-01T06:15:43;7.22;;;2.00;;
73120;SDS011;61307;49.628;-1.624;2023-04-01T06:18:30;7.25;;;2.03;;
73120;SDS011;61307;49.628;-1.624;2023-04-01T06:21:09;5.40;;;1.98;;
73120;SDS011;61307;49.628;-1.624;2023-04-01T06:23:58;8.50;;;2.03;;
73120;SDS011;61307;49.628;-1.624;2023-04-01T06:26:36;5.80;;;1.88;;
73120;SDS011;61307;49.628;-1.624;2023-04-01T06:29:18;5.95;;;1.80;;
73120;SDS011;61307;49.628;-1.624;2023-04-01T06:32:15;5.47;;;1.77;;
73120;SDS011;61307;49.628;-1.624;2023-04-01T06:35:01;6.80;;;2.10;;
73120;SDS011;61307;49.628;-1.624;2023-04-01T06:37:51;6.32;;;2.05;;
73120;SDS011;61307;49.628;-1.624;2023-04-01T06:40:46;9.02;;;2.05;;
73120;SDS011;61307;49.628;-1.624;2023-04-01T06:43:36;7.75;;;2.13;;
73120;SDS011;61307;49.628;-1.624;2023-04-01T06:46:12;7.82;;;2.25;;
73120;SDS011;61307;49.628;-1.624;2023-04-01T06:48:54;8.50;;;1.90;;
73120;SDS011;61307;49.628;-1.624;2023-04-01T06:51:33;8.90;;;2.30;;
73120;SDS011;61307;49.628;-1.624;2023-04-01T06:54:09;7.10;;;2.05;;
73120;SDS011;61307;49.628;-1.624;2023-04-01T06:56:39;9.10;;;1.98;;
73120;SDS011;61307;49.628;-1.624;2023-04-01T06:59:12;5.65;;;1.92;;
73120;SDS011;61307;49.628;-1.624;2023-04-01T07:01:42;8.15;;;2.03;;
73120;SDS011;61307;49.628;-1.624;2023-04-01T07:04:14;6.68;;;1.80;;
73120;SDS011;61307;49.628;-1.624;2023-04-01T07:06:46;7.25;;;1.80;;
73120;SDS011;61307;49.628;-1.624;2023-04-01T07:09:18;9.95;;;2.28;;
73120;SDS011;61307;49.628;-1.624;2023-04-01T07:11:47;7.63;;;1.80;;
73120;SDS011;61307;49.628;-1.624;2023-04-01T07:14:17;8.90;;;2.15;;
73120;SDS011;61307;49.628;-1.624;2023-04-01T07:16:47;6.90;;;1.95;;
73120;SDS011;61307;49.628;-1.624;2023-04-01T07:19:18;6.03;;;2.03;;
73120;SDS011;61307;49.628;-1.624;2023-04-01T07:21:54;6.90;;;2.05;;
73120;SDS011;61307;49.628;-1.624;2023-04-01T07:24:25;6.45;;;1.90;;
73120;SDS011;61307;49.628;-1.624;2023-04-01T07:26:54;8.10;;;2.22;;
73120;SDS011;61307;49.628;-1.624;2023-04-01T07:29:23;8.77;;;2.20;;
73120;SDS011;61307;49.628;-1.624;2023-04-01T07:32:09;6.55;;;1.95;;
73120;SDS011;61307;49.628;-1.624;2023-04-01T07:34:50;6.45;;;1.80;;
73120;SDS011;61307;49.628;-1.624;2023-04-01T07:37:31;7.40;;;2.00;;
73120;SDS011;61307;49.628;-1.624;2023-04-01T07:40:08;7.63;;;2.03;;
73120;SDS011;61307;49.628;-1.624;2023-04-01T07:42:47;6.68;;;1.98;;
73120;SDS011;61307;49.628;-1.624;2023-04-01T07:45:27;8.20;;;2.15;;
73120;SDS011;61307;49.628;-1.624;2023-04-01T07:48:01;7.88;;;2.15;;
73120;SDS011;61307;49.628;-1.624;2023-04-01T07:50:37;7.05;;;1.90;;
73120;SDS011;61307;49.628;-1.624;2023-04-01T07:53:14;5.43;;;1.65;;
73120;SDS011;61307;49.628;-1.624;2023-04-01T07:55:48;6.72;;;1.98;;
73120;SDS011;61307;49.628;-1.624;2023-04-01T07:58:22;7.78;;;2.13;;
73120;SDS011;61307;49.628;-1.624;2023-04-01T08:00:59;5.57;;;1.80;;
73120;SDS011;61307;49.628;-1.624;2023-04-01T08:03:37;8.02;;;1.95;;
73120;SDS011;61307;49.628;-1.624;2023-04-01T08:06:14;6.72;;;2.22;;
73120;SDS011;61307;49.628;-1.624;2023-04-01T08:08:50;4.85;;;1.75;;
73120;SDS011;61307;49.628;-1.624;2023-04-01T08:11:29;7.47;;;2.03;;
73120;SDS011;61307;49.628;-1.624;2023-04-01T08:14:15;4.80;;;1.63;;
73120;SDS011;61307;49.628;-1.624;2023-04-01T08:16:54;7.80;;;2.15;;
73120;SDS011;61307;49.628;-1.624;2023-04-01T08:19:30;8.13;;;1.90;;
73120;SDS011;61307;49.628;-1.624;2023-04-01T08:22:14;6.35;;;2.17;;
73120;SDS011;61307;49.628;-1.624;2023-04-01T08:24:46;9.23;;;1.85;;
73120;SDS011;61307;49.628;-1.624;2023-04-01T08:27:16;5.85;;;1.90;;
73120;SDS011;61307;49.628;-1.624;2023-04-01T08:29:49;6.45;;;1.83;;
73120;SDS011;61307;49.628;-1.624;2023-04-01T08:32:22;6.18;;;1.88;;
73120;SDS011;61307;49.628;-1.624;2023-04-01T08:34:55;7.75;;;1.73;;
73120;SDS011;61307;49.628;-1.624;2023-04-01T08:37:35;5.05;;;1.83;;
73120;SDS011;61307;49.628;-1.624;2023-04-01T08:40:11;5.50;;;1.98;;
73120;SDS011;61307;49.628;-1.624;2023-04-01T08:42:59;4.50;;;1.63;;
73120;SDS011;61307;49.628;-1.624;2023-04-01T08:45:45;8.10;;;2.20;;
73120;SDS011;61307;49.628;-1.624;2023-04-01T08:48:27;7.03;;;1.52;;
73120;SDS011;61307;49.628;-1.624;2023-04-01T08:51:14;5.95;;;1.73;;
73120;SDS011;61307;49.628;-1.624;2023-04-01T08:53:58;6.80;;;1.88;;
73120;SDS011;61307;49.628;-1.624;2023-04-01T08:56:40;5.60;;;1.65;;
73120;SDS011;61307;49.628;-1.624;2023-04-01T08:59:21;4.93;;;2.00;;
73120;SDS011;61307;49.628;-1.624;2023-04-01T09:02:13;7.22;;;2.15;;
73120;SDS011;61307;49.628;-1.624;2023-04-01T09:05:11;5.88;;;1.70;;
73120;SDS011;61307;49.628;-1.624;2023-04-01T09:08:05;4.97;;;1.50;;
73120;SDS011;61307;49.628;-1.624;2023-04-01T09:10:45;4.60;;;1.58;;
73120;SDS011;61307;49.628;-1.624;2023-04-01T09:13:43;4.47;;;1.63;;
73120;SDS011;61307;49.628;-1.624;2023-04-01T09:16:28;5.35;;;1.45;;
73120;SDS011;61307;49.628;-1.624;2023-04-01T09:19:20;7.57;;;1.95;;
73120;SDS011;61307;49.628;-1.624;2023-04-01T09:22:05;6.80;;;1.60;;
73120;SDS011;61307;49.628;-1.624;2023-04-01T09:24:53;5.00;;;1.65;;
73120;SDS011;61307;49.628;-1.624;2023-04-01T09:27:43;6.60;;;1.70;;
73120;SDS011;61307;49.628;-1.624;2023-04-01T09:33:09;7.57;;;2.08;;
73120;SDS011;61307;49.628;-1.624;2023-04-01T09:35:55;6.78;;;1.83;;
73120;SDS011;61307;49.628;-1.624;2023-04-01T09:38:38;6.95;;;1.70;;
73120;SDS011;61307;49.628;-1.624;2023-04-01T09:41:18;6.10;;;1.73;;
73120;SDS011;61307;49.628;-1.624;2023-04-01T09:43:58;6.03;;;1.75;;
73120;SDS011;61307;49.628;-1.624;2023-04-01T09:46:31;5.72;;;1.67;;
73120;SDS011;61307;49.628;-1.624;2023-04-01T09:49:22;6.75;;;1.80;;
73120;SDS011;61307;49.628;-1.624;2023-04-01T09:52:10;7.80;;;2.00;;
73120;SDS011;61307;49.628;-1.624;2023-04-01T09:57:50;5.50;;;1.80;;
73120;SDS011;61307;49.628;-1.624;2023-04-01T10:00:40;4.93;;;1.42;;
73120;SDS011;61307;49.628;-1.624;2023-04-01T10:03:28;4.95;;;1.50;;
73120;SDS011;61307;49.628;-1.624;2023-04-01T10:09:45;5.45;;;1.80;;
73120;SDS011;61307;49.628;-1.624;2023-04-01T10:12:40;5.47;;;1.48;;
73120;SDS011;61307;49.628;-1.624;2023-04-01T10:15:39;6.68;;;1.48;;
73120;SDS011;61307;49.628;-1.624;2023-04-01T10:22:03;6.75;;;1.70;;
73120;SDS011;61307;49.628;-1.624;2023-04-01T10:25:10;6.70;;;1.60;;
73120;SDS011;61307;49.628;-1.624;2023-04-01T10:27:56;4.30;;;1.58;;
73120;SDS011;61307;49.628;-1.624;2023-04-01T10:33:59;3.95;;;1.50;;
73120;SDS011;61307;49.628;-1.624;2023-04-01T10:36:50;6.10;;;1.80;;
73120;SDS011;61307;49.628;-1.624;2023-04-01T10:39:34;7.05;;;1.65;;
73120;SDS011;61307;49.628;-1.624;2023-04-01T10:45:40;5.15;;;1.48;;
73120;SDS011;61307;49.628;-1.624;2023-04-01T10:48:34;4.03;;;1.48;;
73120;SDS011;61307;49.628;-1.624;2023-04-01T10:51:40;6.57;;;1.42;;
73120;SDS011;61307;49.628;-1.624;2023-04-01T10:54:45;4.05;;;1.30;;
73120;SDS011;61307;49.628;-1.624;2023-04-01T10:57:24;4.95;;;1.30;;
73120;SDS011;61307;49.628;-1.624;2023-04-01T11:06:19;6.00;;;1.80;;
73120;SDS011;61307;49.628;-1.624;2023-04-01T11:09:10;4.47;;;1.50;;
73120;SDS011;61307;49.628;-1.624;2023-04-01T11:12:09;4.15;;;1.40;;
73120;SDS011;61307;49.628;-1.624;2023-04-01T11:18:41;4.47;;;1.40;;
73120;SDS011;61307;49.628;-1.624;2023-04-01T11:21:46;4.25;;;1.50;;
73120;SDS011;61307;49.628;-1.624;2023-04-01T11:24:50;4.65;;;1.60;;
73120;SDS011;61307;49.628;-1.624;2023-04-01T11:30:47;3.88;;;1.35;;
73120;SDS011;61307;49.628;-1.624;2023-04-01T11:33:28;4.20;;;1.35;;
73120;SDS011;61307;49.628;-1.624;2023-04-01T11:36:07;6.25;;;1.98;;
73120;SDS011;61307;49.628;-1.624;2023-04-01T11:38:48;4.65;;;1.40;;
73120;SDS011;61307;49.628;-1.624;2023-04-01T11:41:26;4.70;;;1.48;;
73120;SDS011;61307;49.628;-1.624;2023-04-01T11:44:07;4.03;;;1.40;;
73120;SDS011;61307;49.628;-1.624;2023-04-01T11:46:52;4.28;;;1.30;;
73120;SDS011;61307;49.628;-1.624;2023-04-01T11:49:57;5.45;;;1.50;;
73120;SDS011;61307;49.628;-1.624;2023-04-01T11:52:42;6.10;;;1.60;;
73120;SDS011;61307;49.628;-1.624;2023-04-01T11:55:25;6.63;;;1.70;;
73120;SDS011;61307;49.628;-1.624;2023-04-01T11:58:12;4.18;;;1.58;;
73120;SDS011;61307;49.628;-1.624;2023-04-01T12:00:53;5.55;;;1.90;;
73120;SDS011;61307;49.628;-1.624;2023-04-01T12:09:51;3.65;;;1.45;;
73120;SDS011;61307;49.628;-1.624;2023-04-01T12:12:27;5.95;;;1.52;;
73120;SDS011;61307;49.628;-1.624;2023-04-01T12:15:11;7.10;;;1.67;;
73120;SDS011;61307;49.628;-1.624;2023-04-01T12:17:48;7.15;;;1.50;;
73120;SDS011;61307;49.628;-1.624;2023-04-01T12:20:25;6.18;;;1.60;;
73120;SDS011;61307;49.628;-1.624;2023-04-01T12:23:06;6.80;;;1.50;;
73120;SDS011;61307;49.628;-1.624;2023-04-01T12:25:52;8.20;;;1.48;;
73120;SDS011;61307;49.628;-1.624;2023-04-01T12:28:45;4.53;;;1.52;;
73120;SDS011;61307;49.628;-1.624;2023-04-01T12:31:25;7.13;;;1.45;;
73120;SDS011;61307;49.628;-1.624;2023-04-01T12:36:56;5.78;;;1.42;;
73120;SDS011;61307;49.628;-1.624;2023-04-01T12:39:43;5.18;;;1.63;;
73120;SDS011;61307;49.628;-1.624;2023-04-01T12:42:50;5.22;;;1.45;;
73120;SDS011;61307;49.628;-1.624;2023-04-01T12:45:28;5.20;;;1.75;;
73120;SDS011;61307;49.628;-1.624;2023-04-01T12:48:10;4.32;;;1.33;;
73120;SDS011;61307;49.628;-1.624;2023-04-01T12:51:16;5.82;;;1.70;;
73120;SDS011;61307;49.628;-1.624;2023-04-01T13:00:44;5.10;;;1.55;;
73120;SDS011;61307;49.628;-1.624;2023-04-01T13:03:28;5.57;;;2.00;;
73120;SDS011;61307;49.628;-1.624;2023-04-01T13:06:19;5.65;;;1.70;;
73120;SDS011;61307;49.628;-1.624;2023-04-01T13:08:59;7.97;;;1.30;;
73120;SDS011;61307;49.628;-1.624;2023-04-01T13:11:46;5.07;;;1.35;;
73120;SDS011;61307;49.628;-1.624;2023-04-01T13:14:39;4.60;;;1.30;;
73120;SDS011;61307;49.628;-1.624;2023-04-01T13:17:29;5.50;;;1.27;;
73120;SDS011;61307;49.628;-1.624;2023-04-01T13:20:06;5.90;;;1.70;;
73120;SDS011;61307;49.628;-1.624;2023-04-01T13:22:50;24.15;;;2.95;;
73120;SDS011;61307;49.628;-1.624;2023-04-01T13:25:29;18.70;;;3.95;;
73120;SDS011;61307;49.628;-1.624;2023-04-01T13:28:06;20.00;;;4.60;;
73120;SDS011;61307;49.628;-1.624;2023-04-01T13:30:49;23.05;;;3.85;;
73120;SDS011;61307;49.628;-1.624;2023-04-01T13:33:24;12.45;;;3.13;;
73120;SDS011;61307;49.628;-1.624;2023-04-01T13:36:01;18.95;;;3.25;;
73120;SDS011;61307;49.628;-1.624;2023-04-01T13:42:05;13.40;;;2.88;;
73120;SDS011;61307;49.628;-1.624;2023-04-01T13:44:46;14.05;;;2.95;;
73120;SDS011;61307;49.628;-1.624;2023-04-01T13:47:26;7.40;;;2.30;;
73120;SDS011;61307;49.628;-1.624;2023-04-01T13:50:22;12.13;;;3.25;;
73120;SDS011;61307;49.628;-1.624;2023-04-01T13:53:11;12.52;;;3.33;;
73120;SDS011;61307;49.628;-1.624;2023-04-01T13:56:14;32.00;;;17.85;;
73120;SDS011;61307;49.628;-1.624;2023-04-01T14:02:04;29.48;;;19.15;;
73120;SDS011;61307;49.628;-1.624;2023-04-01T14:04:50;26.30;;;15.18;;
73120;SDS011;61307;49.628;-1.624;2023-04-01T14:10:22;22.00;;;11.63;;
73120;SDS011;61307;49.628;-1.624;2023-04-01T14:12:57;24.17;;;10.45;;
73120;SDS011;61307;49.628;-1.624;2023-04-01T14:15:31;22.80;;;9.95;;
73120;SDS011;61307;49.628;-1.624;2023-04-01T14:18:16;18.67;;;9.27;;
73120;SDS011;61307;49.628;-1.624;2023-04-01T14:21:03;15.85;;;7.80;;
73120;SDS011;61307;49.628;-1.624;2023-04-01T14:23:59;13.63;;;6.95;;
73120;SDS011;61307;49.628;-1.624;2023-04-01T14:27:01;12.30;;;5.88;;
73120;SDS011;61307;49.628;-1.624;2023-04-01T14:29:53;10.55;;;5.20;;
73120;SDS011;61307;49.628;-1.624;2023-04-01T14:32:34;13.63;;;4.50;;
73120;SDS011;61307;49.628;-1.624;2023-04-01T14:35:18;11.48;;;5.05;;
73120;SDS011;61307;49.628;-1.624;2023-04-01T14:38:11;15.25;;;4.60;;
73120;SDS011;61307;49.628;-1.624;2023-04-01T14:41:06;8.80;;;3.53;;
73120;SDS011;61307;49.628;-1.624;2023-04-01T14:46:55;9.43;;;3.63;;
73120;SDS011;61307;49.628;-1.624;2023-04-01T14:49:47;7.18;;;3.10;;
73120;SDS011;61307;49.628;-1.624;2023-04-01T14:52:22;10.23;;;3.20;;
73120;SDS011;61307;49.628;-1.624;2023-04-01T14:54:53;6.38;;;2.60;;
73120;SDS011;61307;49.628;-1.624;2023-04-01T14:57:23;8.75;;;2.97;;
73120;SDS011;61307;49.628;-1.624;2023-04-01T14:59:53;6.82;;;2.75;;
73120;SDS011;61307;49.628;-1.624;2023-04-01T15:05:16;6.85;;;2.35;;
73120;SDS011;61307;49.628;-1.624;2023-04-01T15:08:05;6.13;;;2.38;;
73120;SDS011;61307;49.628;-1.624;2023-04-01T15:10:51;7.47;;;2.28;;
73120;SDS011;61307;49.628;-1.624;2023-04-01T15:16:50;7.18;;;2.00;;
73120;SDS011;61307;49.628;-1.624;2023-04-01T15:19:29;7.05;;;1.92;;
73120;SDS011;61307;49.628;-1.624;2023-04-01T15:22:27;6.72;;;2.08;;
73120;SDS011;61307;49.628;-1.624;2023-04-01T15:25:18;7.10;;;2.45;;
73120;SDS011;61307;49.628;-1.624;2023-04-01T15:27:57;4.35;;;1.70;;
73120;SDS011;61307;49.628;-1.624;2023-04-01T15:30:33;7.97;;;2.45;;
73120;SDS011;61307;49.628;-1.624;2023-04-01T15:33:14;6.45;;;2.08;;
73120;SDS011;61307;49.628;-1.624;2023-04-01T15:35:57;5.20;;;1.80;;
73120;SDS011;61307;49.628;-1.624;2023-04-01T15:38:33;5.60;;;1.95;;
73120;SDS011;61307;49.628;-1.624;2023-04-01T15:41:08;6.10;;;1.92;;
73120;SDS011;61307;49.628;-1.624;2023-04-01T15:43:46;5.22;;;1.77;;
73120;SDS011;61307;49.628;-1.624;2023-04-01T15:46:29;6.28;;;1.80;;
73120;SDS011;61307;49.628;-1.624;2023-04-01T15:49:15;4.93;;;1.60;;
73120;SDS011;61307;49.628;-1.624;2023-04-01T15:51:58;8.60;;;2.03;;
73120;SDS011;61307;49.628;-1.624;2023-04-01T15:54:47;4.50;;;1.70;;
73120;SDS011;61307;49.628;-1.624;2023-04-01T15:57:33;4.88;;;2.20;;
73120;SDS011;61307;49.628;-1.624;2023-04-01T16:03:15;4.32;;;1.33;;
73120;SDS011;61307;49.628;-1.624;2023-04-01T16:08:56;4.93;;;1.50;;
73120;SDS011;61307;49.628;-1.624;2023-04-01T16:11:35;6.22;;;1.73;;
73120;SDS011;61307;49.628;-1.624;2023-04-01T16:14:11;7.25;;;1.80;;
73120;SDS011;61307;49.628;-1.624;2023-04-01T16:16:53;5.80;;;1.88;;
73120;SDS011;61307;49.628;-1.624;2023-04-01T16:19:29;4.05;;;1.30;;
73120;SDS011;61307;49.628;-1.624;2023-04-01T16:22:05;3.47;;;1.25;;
73120;SDS011;61307;49.628;-1.624;2023-04-01T16:24:38;4.15;;;1.55;;
73120;SDS011;61307;49.628;-1.624;2023-04-01T16:27:12;5.55;;;1.50;;
73120;SDS011;61307;49.628;-1.624;2023-04-01T16:29:46;4.47;;;1.70;;
73120;SDS011;61307;49.628;-1.624;2023-04-01T16:32:27;2.95;;;1.20;;
73120;SDS011;61307;49.628;-1.624;2023-04-01T16:35:10;4.05;;;1.15;;
73120;SDS011;61307;49.628;-1.624;2023-04-01T16:37:53;4.63;;;1.75;;
73120;SDS011;61307;49.628;-1.624;2023-04-01T16:40:32;5.32;;;1.20;;